Estación Meteorológica Peña el Pijo (Robertgarden) [ 02/02/23 20:02:57 CET ]

Fecha Hora Presion(HPa) Temp (°C) Humedad % Rocio (°C) Viento ( m/s) Direccion Lluvia 1Hora(mm) Lluvia 24H(mm) LLuvia Total(mm)
2010-Oct-10 01:01:17 1002.300 10.6 84 8.0       1.03 167.83
2010-Oct-10 02:01:16 1001.300 10.3 83 7.5       1.03 167.83
2010-Oct-10 03:05:17 1000.800 9.8 82 6.8       1.03 167.83
2010-Oct-10 04:01:20 1000.400 8.4 86 6.2       1.03 167.83
2010-Oct-10 05:01:16 999.700 8.7 89 7.0       1.03 167.83
2010-Oct-10 06:01:18 999.000 8.6 89 6.9       1.03 167.83
2010-Oct-10 07:01:14 999.300 8.6 91 7.2       1.03 167.83
2010-Oct-10 08:01:16 999.000 9.5 90 8.0       1.03 167.83
2010-Oct-10 09:01:12 998.900 9.4 91 8.0       1.03 167.83
2010-Oct-10 10:01:13 998.500 10.3 87 8.2       1.03 167.83
2010-Oct-10 11:01:12 998.500 12.3 79 8.8       1.03 167.83
2010-Oct-10 12:01:13 998.000 13.9 70 8.5       1.03 167.83
2010-Oct-10 13:01:14 997.600 15.4 63 8.4       1.03 167.83
2010-Oct-10 14:01:12 997.600 13.8 67 7.8       1.03 167.83
2010-Oct-10 15:01:11 996.800 15.3 62 8.1       1.03 167.83
2010-Oct-10 16:01:11 996.700 14.9 62 7.7         167.83
2010-Oct-10 17:01:10 996.900 13.1 66 6.9         167.83
2010-Oct-10 18:01:14 996.900 12.2 72 7.3         167.83
2010-Oct-10 19:01:12 996.700 11.5 75 7.2         167.83
2010-Oct-10 20:01:16 997.300 10.2 80 6.9         167.83
2010-Oct-10 21:01:12 997.200 8.8 86 6.6         167.83
2010-Oct-10 22:01:14 997.300 8.5 89 6.8         167.83
2010-Oct-10 23:01:14 996.700 8.2 89 6.5         167.83

Temperatura Máxima:15°    Temperatura Mínima:
Presión Máxima:1002.300 Hpa    Presión Mínima:996.700 Hpa


Volver